Time;durP1;ratioP1;P1;durP2;ratioP2;P2;SDS_P1;SDS_P2;PMS_P1;PMS_P2;Temp;Humidity;BMP_temperature;BMP_pressure;BME280_temperature;BME280_humidity;BME280_pressure;Samples;Min_cycle;Max_cycle;Signal;HPM_P1;HPM_P2
2024/02/02 00:02:12;;;;;;;12.23;2.83;;;5.00;99.90;;;-141.84;76.28;20716.31;4999621;28;20254;-53
2024/02/02 00:04:42;;;;;;;9.07;2.87;;;4.80;99.90;;;-141.84;77.19;22015.50;4990033;28;20230;-52
2024/02/02 00:07:10;;;;;;;12.60;2.97;;;4.80;99.90;;;-141.84;76.85;21732.84;5000181;28;20228;-51
2024/02/02 00:09:39;;;;;;;13.47;3.37;;;4.80;99.90;;;-141.84;76.19;20539.47;4998263;28;20234;-53
2024/02/02 00:12:11;;;;;;;8.53;2.70;;;4.80;99.90;;;-141.84;77.50;21846.72;5001142;28;20622;-54
2024/02/02 00:14:41;;;;;;;9.40;2.53;;;4.70;99.90;;;-141.84;76.67;21232.69;5000819;28;20195;-52
2024/02/02 00:17:09;;;;;;;10.80;3.20;;;4.70;99.90;;;-141.84;77.26;22025.66;5002107;28;20222;-52
2024/02/02 00:19:37;;;;;;;8.97;2.57;;;4.70;99.90;;;-141.84;76.53;21009.03;4997873;28;20229;-50
2024/02/02 00:22:08;;;;;;;9.83;2.57;;;4.70;99.90;;;-141.84;77.06;21476.66;4997953;28;20235;-52
2024/02/02 00:24:36;;;;;;;11.47;2.73;;;4.70;99.90;;;-141.84;77.61;23069.00;4998061;28;20659;-53
2024/02/02 00:27:05;;;;;;;7.87;2.40;;;4.60;99.90;;;-141.84;78.45;24403.56;4994349;28;20313;-49
2024/02/02 00:29:33;;;;;;;12.47;3.50;;;4.60;99.90;;;-141.84;79.17;27334.72;5000950;28;20277;-51
2024/02/02 00:32:02;;;;;;;10.97;2.53;;;4.60;99.90;;;-141.84;79.37;28762.41;4990332;28;20229;-53
2024/02/02 00:34:30;;;;;;;9.17;3.07;;;4.60;99.90;;;-141.84;80.55;35449.56;5001698;28;20230;-55
2024/02/02 00:36:59;;;;;;;14.00;3.50;;;4.50;99.90;;;-141.84;80.81;39620.53;4996981;28;20223;-52
2024/02/02 00:39:28;;;;;;;11.50;2.90;;;4.50;99.90;;;-141.84;81.82;44180.38;4999069;28;20307;-56
2024/02/02 00:41:57;;;;;;;8.03;2.47;;;4.50;99.90;;;-141.84;80.83;38613.63;4998334;28;20264;-55
2024/02/02 00:44:25;;;;;;;10.83;3.40;;;4.50;99.90;;;-141.84;81.04;40284.44;4997974;28;20740;-52
2024/02/02 00:46:54;;;;;;;13.80;3.30;;;4.40;99.90;;;-141.84;78.98;27756.25;4993444;28;20268;-54
2024/02/02 00:49:23;;;;;;;16.33;3.07;;;4.50;99.90;;;-141.84;79.84;30257.88;4997450;28;20224;-49
2024/02/02 00:51:51;;;;;;;11.30;3.00;;;4.50;99.90;;;-141.84;79.26;28685.00;4998984;28;20231;-51
2024/02/02 00:54:20;;;;;;;9.00;3.23;;;4.50;99.90;;;-141.84;80.90;39301.88;5000707;28;20199;-52
2024/02/02 00:56:50;;;;;;;10.93;3.30;;;4.50;99.90;;;-141.84;80.80;39994.34;5000467;28;20208;-50
2024/02/02 00:59:18;;;;;;;9.83;3.43;;;4.40;99.90;;;-141.84;80.50;35602.59;4997669;28;20615;-52
2024/02/02 01:01:46;;;;;;;12.33;2.90;;;4.50;99.90;;;-141.84;81.26;42871.75;4999376;28;20887;-54
2024/02/02 01:04:15;;;;;;;10.67;3.50;;;4.50;99.90;;;-141.84;79.96;33793.03;4997235;28;20306;-52
2024/02/02 01:06:43;;;;;;;11.03;3.63;;;4.50;99.90;;;-141.84;79.31;30135.59;5000790;28;20237;-55
2024/02/02 01:09:12;;;;;;;11.37;3.10;;;4.50;99.90;;;-141.84;80.07;33097.56;5005058;28;20244;-50
2024/02/02 01:11:40;;;;;;;11.40;3.57;;;4.50;99.90;;;-141.84;80.09;33593.13;5001733;28;20207;-54
2024/02/02 01:14:10;;;;;;;9.00;3.13;;;4.60;99.90;;;-141.84;80.71;38335.91;4993067;28;20384;-52
2024/02/02 01:16:39;;;;;;;13.30;3.30;;;4.60;99.90;;;-141.84;82.37;48370.84;5001301;28;20257;-51
2024/02/02 01:19:07;;;;;;;9.53;2.87;;;4.60;99.90;;;-141.84;79.86;33994.94;5000489;28;20717;-49
2024/02/02 01:21:36;;;;;;;11.57;3.53;;;4.60;99.90;;;-141.84;79.97;34127.53;5008029;28;20223;-51
2024/02/02 01:24:05;;;;;;;15.30;3.90;;;4.60;99.90;;;-141.84;80.28;35325.09;5007554;28;20498;-54
2024/02/02 01:26:35;;;;;;;13.43;3.50;;;4.70;99.90;;;-141.84;79.49;30449.44;5001938;28;20234;-50
2024/02/02 01:29:04;;;;;;;13.10;4.83;;;4.70;99.90;;;-141.84;80.78;39363.16;5000482;28;20215;-51
2024/02/02 01:31:33;;;;;;;10.67;4.33;;;4.70;99.90;;;-141.84;78.45;26960.06;5000331;28;20229;-53
2024/02/02 01:34:04;;;;;;;11.43;4.30;;;4.70;99.90;;;-141.84;78.23;25443.47;5003158;28;20624;-53
2024/02/02 01:36:33;;;;;;;13.47;4.20;;;4.80;99.90;;;-141.84;78.98;27381.56;4997576;28;20234;-50
2024/02/02 01:39:03;;;;;;;13.33;4.07;;;4.70;99.90;;;-141.84;78.13;25353.91;5001527;28;20227;-53
2024/02/02 01:41:31;;;;;;;11.00;4.00;;;4.80;99.90;;;-141.84;77.53;23079.19;5002672;28;20212;-54
2024/02/02 01:43:59;;;;;;;15.27;4.73;;;4.80;99.90;;;-141.84;79.28;29035.38;5001168;28;20291;-54
2024/02/02 01:46:28;;;;;;;11.67;4.47;;;4.70;99.90;;;-141.84;79.24;29328.75;5000998;28;20230;-52
2024/02/02 01:48:58;;;;;;;11.50;4.70;;;4.70;99.90;;;-141.84;78.92;29402.09;5003347;28;20719;-52
2024/02/02 01:51:26;;;;;;;9.63;4.27;;;4.80;99.90;;;-141.84;77.34;22725.25;5003397;28;20744;-54
2024/02/02 01:53:55;;;;;;;15.03;4.43;;;4.80;99.90;;;-141.84;77.71;23164.59;5001438;28;20604;-53
2024/02/02 01:56:24;;;;;;;13.73;4.43;;;4.80;99.90;;;-141.84;78.14;24767.81;4999299;28;20604;-53
2024/02/02 01:58:53;;;;;;;13.93;4.37;;;4.60;99.90;;;-141.84;77.86;23416.84;5000927;28;20838;-54
2024/02/02 02:01:24;;;;;;;16.10;4.83;;;4.80;99.90;;;-141.84;77.68;23665.03;5001147;28;20235;-55
2024/02/02 02:03:52;;;;;;;17.00;4.93;;;4.80;99.90;;;-141.84;76.99;22444.59;5000436;28;20610;-54
2024/02/02 02:06:22;;;;;;;15.00;4.70;;;4.80;99.90;;;-141.84;76.19;20822.03;5000534;28;20207;-52
2024/02/02 02:08:51;;;;;;;11.00;4.63;;;4.90;99.90;;;-141.84;77.90;23994.59;5002798;28;20208;-52
2024/02/02 02:11:24;;;;;;;12.60;4.73;;;4.80;99.90;;;-141.84;76.74;21802.00;5000196;28;20252;-54
2024/02/02 02:13:54;;;;;;;10.30;4.73;;;4.80;99.90;;;-141.84;76.44;21122.91;5000912;28;20226;-53
2024/02/02 02:16:22;;;;;;;13.90;4.93;;;4.80;99.90;;;-141.84;78.45;25296.94;5000194;28;20272;-51
2024/02/02 02:18:50;;;;;;;17.40;5.17;;;4.70;99.90;;;-141.84;78.38;25313.22;5000126;28;20258;-50
2024/02/02 02:21:31;;;;;;;15.93;4.87;;;4.70;99.90;;;-141.84;79.10;28283.75;4993158;28;20232;-53
2024/02/02 02:23:59;;;;;;;11.73;4.73;;;4.70;99.90;;;-141.84;79.70;31778.38;5000805;28;20267;-53
2024/02/02 02:26:30;;;;;;;11.90;5.33;;;4.70;99.90;;;-141.84;79.79;32969.09;5001261;28;20246;-52
2024/02/02 02:28:59;;;;;;;15.10;5.20;;;4.60;99.90;;;-141.84;80.05;34513.06;5003082;28;20704;-52
2024/02/02 02:31:28;;;;;;;13.83;6.00;;;4.60;99.90;;;-141.84;78.41;26506.03;5002682;28;20257;-52
2024/02/02 02:33:56;;;;;;;15.23;6.00;;;4.60;99.90;;;-141.84;78.73;26921.38;5000992;28;20246;-53
2024/02/02 02:36:26;;;;;;;10.13;5.67;;;4.60;99.90;;;-141.84;78.00;25461.78;5002089;28;20226;-54
2024/02/02 02:38:56;;;;;;;11.63;5.67;;;4.70;99.90;;;-141.84;78.70;27025.22;5000017;28;20199;-52
2024/02/02 02:41:25;;;;;;;15.13;6.53;;;4.70;99.90;;;-141.84;78.55;27566.84;4996565;28;20250;-51
2024/02/02 02:43:53;;;;;;;10.80;5.87;;;4.70;99.90;;;-141.84;78.15;25264.38;5005137;28;20226;-53
2024/02/02 02:46:22;;;;;;;13.50;6.20;;;4.70;99.90;;;-141.84;79.49;29864.59;5001127;28;20769;-52
2024/02/02 02:48:50;;;;;;;20.20;6.37;;;4.60;99.90;;;-141.84;80.20;34853.78;5000186;28;20222;-51
2024/02/02 02:51:19;;;;;;;18.30;5.90;;;4.60;99.90;;;-141.84;80.40;36812.84;4999322;28;20204;-53
2024/02/02 02:53:48;;;;;;;12.83;5.90;;;4.50;99.90;;;-141.84;80.78;39969.84;4999721;28;20203;-52
2024/02/02 02:56:17;;;;;;;14.47;6.50;;;4.50;99.90;;;-141.84;80.17;36890.41;4995293;28;20222;-52
2024/02/02 02:58:46;;;;;;;17.10;7.83;;;4.50;99.90;;;-141.84;80.31;35874.00;5001474;28;20229;-54
2024/02/02 03:01:14;;;;;;;19.27;6.43;;;4.50;99.90;;;-141.84;79.01;28422.25;4999465;28;20427;-52
2024/02/02 03:03:43;;;;;;;12.27;6.07;;;4.50;99.90;;;-141.84;78.66;26392.03;4998683;28;20232;-51
2024/02/02 03:06:11;;;;;;;13.77;6.67;;;4.50;99.90;;;-141.84;79.44;30249.72;4999730;28;20214;-53
2024/02/02 03:08:40;;;;;;;14.60;6.80;;;4.50;99.90;;;-141.84;79.53;30213.03;5001429;28;20202;-54
2024/02/02 03:11:08;;;;;;;15.77;6.73;;;4.50;99.90;;;-141.84;79.55;31128.13;5003571;28;20313;-51
2024/02/02 03:13:38;;;;;;;15.10;6.77;;;4.50;99.90;;;-141.84;79.47;31560.25;4993198;28;20230;-54
2024/02/02 03:16:07;;;;;;;15.17;6.90;;;4.50;99.90;;;-141.84;78.85;27426.34;4991836;28;20712;-52
2024/02/02 03:18:36;;;;;;;14.53;7.33;;;4.50;99.90;;;-141.84;79.86;31978.16;4999315;28;20233;-51
2024/02/02 03:21:05;;;;;;;18.27;7.77;;;4.50;99.90;;;-141.84;80.55;38815.78;5000324;28;20230;-50
2024/02/02 03:23:33;;;;;;;15.73;7.70;;;4.40;99.90;;;-141.84;80.07;33613.53;4998380;28;20251;-52
2024/02/02 03:26:02;;;;;;;16.70;7.87;;;4.40;99.90;;;-141.84;78.74;27092.41;4998563;28;20242;-53
2024/02/02 03:28:30;;;;;;;15.23;7.53;;;4.50;99.90;;;-141.84;79.42;29226.88;4994095;28;20230;-52
2024/02/02 03:31:00;;;;;;;18.33;8.43;;;4.40;99.90;;;-141.84;79.80;32371.66;5002245;28;20226;-52
2024/02/02 03:33:28;;;;;;;20.67;8.37;;;4.40;99.90;;;-141.84;78.43;25974.72;4999212;28;20229;-50
2024/02/02 03:35:57;;;;;;;18.00;8.37;;;4.40;99.90;;;-141.84;78.58;26398.13;5000622;28;20617;-52
2024/02/02 03:38:25;;;;;;;15.77;8.93;;;4.50;99.90;;;-141.84;77.44;22672.38;5002162;28;20222;-52
2024/02/02 03:40:54;;;;;;;17.53;8.20;;;4.50;99.90;;;-141.84;77.35;22566.63;5001641;28;20303;-52
2024/02/02 03:43:22;;;;;;;18.00;8.70;;;4.50;99.90;;;-141.84;77.67;23044.59;4998411;28;20710;-53
2024/02/02 03:45:50;;;;;;;16.60;8.60;;;4.40;99.90;;;-141.84;77.99;23750.47;5003820;28;20305;-53
2024/02/02 03:48:20;;;;;;;19.17;9.03;;;4.40;99.90;;;-141.84;80.16;34402.91;5000970;28;20203;-52
2024/02/02 03:50:48;;;;;;;16.93;8.23;;;4.30;99.90;;;-141.84;78.80;27408.03;4991963;28;20699;-50
2024/02/02 03:53:17;;;;;;;21.27;8.97;;;4.30;99.90;;;-141.84;79.20;27420.25;5000863;28;20223;-54
2024/02/02 03:55:45;;;;;;;16.77;8.40;;;4.30;99.90;;;-141.84;79.77;31223.91;5000382;28;20229;-53
2024/02/02 03:58:13;;;;;;;19.00;9.10;;;4.20;99.90;;;-141.84;80.31;34453.91;4998001;28;20313;-53
2024/02/02 04:00:42;;;;;;;18.83;9.17;;;4.10;99.90;;;-141.84;81.99;45751.28;4996465;28;20423;-51
2024/02/02 04:03:12;;;;;;;18.63;8.63;;;4.10;99.90;;;-141.84;81.47;44180.38;4999058;28;20600;-54
2024/02/02 04:05:42;;;;;;;15.73;8.20;;;4.10;99.90;;;-141.84;83.28;53877.56;5001667;28;20217;-54
2024/02/02 04:08:10;;;;;;;15.80;8.87;;;4.00;99.90;;;-141.84;82.83;52565.75;5000883;28;20226;-54
2024/02/02 04:10:38;;;;;;;16.27;7.73;;;3.90;99.90;;;-141.84;84.14;59654.75;4999043;28;20217;-53
2024/02/02 04:13:07;;;;;;;16.63;8.37;;;3.90;99.90;;;-141.84;85.17;65703.56;4998525;28;20297;-53
2024/02/02 04:15:36;;;;;;;15.60;7.47;;;3.90;99.90;;;-141.84;84.21;61494.72;5000941;28;20248;-53
2024/02/02 04:18:04;;;;;;;17.53;7.20;;;4.00;99.90;;;-141.84;81.80;47846.78;5003925;28;20206;-53
2024/02/02 04:20:33;;;;;;;17.40;7.40;;;4.10;99.90;;;-141.84;81.90;46536.97;5005817;28;20219;-53
2024/02/02 04:23:03;;;;;;;14.53;7.23;;;4.10;99.90;;;-141.84;80.90;40364.13;5005275;28;20289;-51
2024/02/02 04:25:31;;;;;;;14.80;6.87;;;4.10;99.90;;;-141.84;79.65;29856.44;5003499;28;20605;-52
2024/02/02 04:27:59;;;;;;;11.83;6.73;;;4.10;99.90;;;-141.84;80.39;35763.81;5001616;28;20237;-54
2024/02/02 04:30:30;;;;;;;13.63;7.23;;;4.20;99.90;;;-141.84;78.50;25478.06;5001713;28;20230;-50
2024/02/02 04:32:58;;;;;;;11.97;6.60;;;4.20;99.90;;;-141.84;79.96;31393.09;4998650;28;20668;-50
2024/02/02 04:35:27;;;;;;;12.50;6.70;;;4.20;99.90;;;-141.84;80.22;35245.50;4997728;28;20733;-52
2024/02/02 04:37:55;;;;;;;10.87;6.80;;;4.20;99.90;;;-141.84;79.39;30634.88;5004309;28;20398;-52
2024/02/02 04:40:25;;;;;;;15.00;7.10;;;4.20;99.90;;;-141.84;78.25;25292.88;4997313;28;20703;-53
2024/02/02 04:42:53;;;;;;;16.00;7.37;;;4.20;99.90;;;-141.84;78.54;25632.75;5002974;28;20317;-52
2024/02/02 04:45:21;;;;;;;12.23;6.80;;;4.30;99.90;;;-141.84;78.38;24930.59;5003103;28;20199;-51
2024/02/02 04:47:50;;;;;;;15.20;7.50;;;4.30;99.90;;;-141.84;78.59;25988.97;5009058;28;20216;-51
2024/02/02 04:50:20;;;;;;;11.63;6.17;;;4.30;99.90;;;-141.84;78.96;26569.16;5003843;28;20222;-50
2024/02/02 04:52:48;;;;;;;13.37;6.53;;;4.20;99.90;;;-141.84;78.53;25278.63;4969326;28;20259;-49
2024/02/02 04:55:17;;;;;;;14.03;6.97;;;4.30;99.90;;;-141.84;78.34;25213.50;5003611;28;20628;-52
2024/02/02 04:57:47;;;;;;;16.20;7.63;;;4.30;99.90;;;-141.84;77.74;23406.66;4995801;28;20330;-49
2024/02/02 05:00:17;;;;;;;12.23;6.77;;;4.30;99.90;;;-141.84;76.88;21271.31;4994500;28;20297;-54
2024/02/02 05:02:48;;;;;;;13.27;7.20;;;4.30;99.90;;;-141.84;76.85;21212.34;4950931;28;20199;-53
2024/02/02 05:05:17;;;;;;;15.87;7.60;;;4.30;99.90;;;-141.84;77.51;22670.34;5002067;28;20277;-48
2024/02/02 05:07:46;;;;;;;14.23;7.00;;;4.30;99.90;;;-141.84;77.67;23071.03;5003378;28;20230;-49
2024/02/02 05:10:14;;;;;;;12.10;7.13;;;4.30;99.90;;;-141.84;76.35;20931.78;4991962;28;20238;-50
2024/02/02 05:12:42;;;;;;;13.97;7.90;;;4.40;99.90;;;-141.84;77.34;22495.44;5003411;28;20322;-55
2024/02/02 05:15:12;;;;;;;15.07;7.47;;;4.40;99.90;;;-141.84;76.12;20695.97;4999807;28;20196;-51
2024/02/02 05:17:41;;;;;;;15.57;7.27;;;4.40;99.90;;;-141.84;74.08;19354.56;5001780;28;20293;-53
2024/02/02 05:20:10;;;;;;;18.87;7.97;;;4.50;99.90;;;-141.84;74.91;19460.22;5001439;28;20249;-52
2024/02/02 05:22:38;;;;;;;17.73;7.77;;;4.50;99.90;;;-141.84;76.19;20338.22;5004273;28;20712;-55
2024/02/02 05:25:07;;;;;;;15.23;7.50;;;4.50;99.90;;;-141.84;76.51;21131.03;5003556;28;20714;-51
2024/02/02 05:27:36;;;;;;;15.87;7.70;;;4.50;99.90;;;-141.84;76.70;21078.16;5001031;28;20696;-51
2024/02/02 05:30:06;;;;;;;14.60;9.37;;;4.50;99.90;;;-141.84;76.33;21068.00;4990326;28;20245;-54
2024/02/02 05:32:36;;;;;;;15.03;8.20;;;4.50;99.90;;;-141.84;76.15;20431.72;5002519;28;20194;-50
2024/02/02 05:35:06;;;;;;;13.17;8.40;;;4.50;99.90;;;-141.84;76.28;20765.09;5002656;28;20214;-48
2024/02/02 05:37:34;;;;;;;17.33;8.80;;;4.50;99.90;;;-141.84;76.05;20433.75;5003376;28;20279;-50
2024/02/02 05:40:04;;;;;;;18.37;8.50;;;4.50;99.90;;;-141.84;75.66;20169.53;4998995;28;20239;-53
2024/02/02 05:42:32;;;;;;;14.83;7.60;;;4.60;99.90;;;-141.84;75.58;19925.63;5002648;28;20273;-54
2024/02/02 05:45:01;;;;;;;17.50;8.10;;;4.60;99.90;;;-141.84;75.89;20326.03;5004600;28;20223;-54
2024/02/02 05:47:29;;;;;;;15.40;7.67;;;4.60;99.90;;;-141.84;74.57;19500.88;4998745;28;20270;-56
2024/02/02 05:49:59;;;;;;;14.50;8.13;;;4.70;99.90;;;-141.84;74.68;19506.97;5006754;28;20258;-50
2024/02/02 05:52:27;;;;;;;15.67;9.17;;;4.70;99.90;;;-141.84;74.27;19346.44;5008677;28;20284;-53
2024/02/02 05:54:55;;;;;;;14.63;7.80;;;4.70;99.90;;;-141.84;73.17;19023.34;4993347;28;20229;-54
2024/02/02 05:57:24;;;;;;;16.33;8.20;;;4.90;99.90;;;-141.84;73.61;19167.59;5001870;28;20230;-50
2024/02/02 05:59:52;;;;;;;17.57;8.33;;;4.80;99.90;;;-141.84;72.67;18940.03;5000966;28;20665;-49
2024/02/02 06:02:21;;;;;;;14.27;7.73;;;4.90;99.90;;;-141.84;73.73;19171.66;5002759;28;20257;-50
2024/02/02 06:04:50;;;;;;;17.37;8.50;;;4.80;99.90;;;-141.84;73.69;19129.00;5002463;28;20789;-51
2024/02/02 06:07:24;;;;;;;16.60;8.63;;;4.80;99.90;;;-141.84;74.37;19326.09;4995140;28;20234;-52
2024/02/02 06:09:53;;;;;;;12.93;7.87;;;4.80;99.90;;;-141.84;74.88;19643.13;4999124;28;20300;-53
2024/02/02 06:12:21;;;;;;;19.30;8.60;;;4.80;99.90;;;-141.84;74.29;19397.22;4999643;28;20483;-49
2024/02/02 06:14:50;;;;;;;16.53;8.60;;;4.70;99.90;;;-141.84;74.36;19513.06;5003576;28;20206;-54
2024/02/02 06:17:18;;;;;;;19.73;8.73;;;4.70;99.90;;;-141.84;75.12;19795.53;5002691;28;20641;-52
2024/02/02 06:19:47;;;;;;;16.37;9.40;;;4.80;99.90;;;-141.84;75.67;20307.72;4951114;28;20296;-53
2024/02/02 06:22:19;;;;;;;18.97;8.93;;;4.70;99.90;;;-141.84;76.29;21051.75;4991637;28;20324;-51
2024/02/02 06:24:49;;;;;;;21.27;8.33;;;4.70;99.90;;;-141.84;75.87;20415.47;5000309;28;20236;-52
2024/02/02 06:27:22;;;;;;;15.47;8.13;;;4.70;99.90;;;-141.84;76.09;20624.84;4999016;28;20285;-53
2024/02/02 06:29:50;;;;;;;18.70;9.47;;;4.70;99.90;;;-141.84;76.11;20700.03;4992860;28;20228;-53
2024/02/02 06:32:21;;;;;;;16.57;8.23;;;4.70;99.90;;;-141.84;75.32;19968.31;4993679;28;20227;-51
2024/02/02 06:34:55;;;;;;;17.83;8.67;;;4.80;99.90;;;-141.84;75.41;20027.25;4991347;28;20732;-51
2024/02/02 06:37:24;;;;;;;17.00;8.33;;;4.70;99.90;;;-141.84;75.26;20126.84;5004194;28;20232;-50
2024/02/02 06:39:55;;;;;;;18.10;8.60;;;4.80;99.90;;;-141.84;75.48;20008.94;4994345;28;20698;-52
2024/02/02 06:42:25;;;;;;;19.97;8.83;;;4.70;99.90;;;-141.84;76.88;21700.31;5001254;28;20293;-53
2024/02/02 06:44:56;;;;;;;16.33;9.43;;;4.70;99.90;;;-141.84;76.59;21346.53;5002519;28;20238;-51
2024/02/02 06:47:25;;;;;;;12.23;7.90;;;4.70;99.90;;;-141.84;76.42;21385.16;5002859;28;20231;-52
2024/02/02 06:49:54;;;;;;;19.37;8.70;;;4.80;99.90;;;-141.84;76.33;21106.63;5002674;28;20244;-53
2024/02/02 06:52:22;;;;;;;18.73;8.20;;;4.80;99.90;;;-141.84;76.46;21161.53;5004031;28;20595;-53
2024/02/02 06:54:51;;;;;;;15.40;8.57;;;4.80;99.90;;;-141.84;76.31;21194.06;4992224;28;20257;-48
2024/02/02 06:57:21;;;;;;;15.80;8.07;;;4.80;99.90;;;-141.84;75.70;20576.03;4990766;28;20720;-63
2024/02/02 06:59:50;;;;;;;19.83;9.50;;;4.80;99.90;;;-141.84;76.43;21250.97;4997386;28;20202;-63
2024/02/02 07:02:24;;;;;;;16.43;8.80;;;4.80;99.90;;;-141.84;77.60;23551.09;4999448;28;20233;-64
2024/02/02 07:04:53;;;;;;;16.90;9.30;;;4.80;99.90;;;-141.84;76.91;22143.63;4999275;28;20648;-63
2024/02/02 07:07:22;;;;;;;21.43;8.67;;;4.80;99.90;;;-141.84;75.43;20242.69;5000236;28;20223;-62
2024/02/02 07:09:52;;;;;;;20.53;9.27;;;4.90;99.90;;;-141.84;73.57;19232.63;4997720;28;20234;-64
2024/02/02 07:12:53;;;;;;;18.37;8.10;;;5.00;99.90;;;-141.84;74.64;19655.31;5007521;28;20202;-63
2024/02/02 07:15:23;;;;;;;17.03;8.17;;;5.00;99.90;;;-141.84;74.21;19397.22;4995752;28;20641;-62
2024/02/02 07:17:52;;;;;;;11.97;7.23;;;5.00;99.90;;;-141.84;74.98;19795.53;5001548;28;20210;-63
2024/02/02 07:21:03;;;;;;;14.97;8.00;;;5.00;99.90;;;-141.84;73.68;19206.22;4998854;28;20294;-63
2024/02/02 07:23:36;;;;;;;15.83;8.57;;;5.10;99.90;;;-141.84;73.52;19187.91;4994553;28;20214;-63
2024/02/02 07:26:13;;;;;;;16.73;8.33;;;5.10;99.90;;;-141.84;73.66;19242.78;4999757;28;20234;-63
2024/02/02 07:28:43;;;;;;;17.87;8.90;;;5.10;99.90;;;-141.84;73.21;19120.88;5002579;28;20244;-63
2024/02/02 07:31:34;;;;;;;15.07;7.60;;;5.10;99.90;;;-141.84;73.29;19163.53;5001970;28;20652;-63
2024/02/02 07:34:25;;;;;;;15.23;7.63;;;5.10;99.90;;;-141.84;73.36;19206.22;4992991;28;20253;-64
2024/02/02 07:36:54;;;;;;;16.40;7.60;;;5.20;99.90;;;-141.84;73.16;19049.75;5005567;28;20231;-62
2024/02/02 07:39:28;;;;;;;19.70;8.57;;;5.10;99.90;;;-141.84;73.47;19157.44;4995547;28;20718;-63
2024/02/02 07:41:57;;;;;;;15.60;7.40;;;5.20;99.90;;;-141.84;72.79;18996.91;4987884;28;20308;-63
2024/02/02 07:44:28;;;;;;;12.90;7.43;;;5.20;99.90;;;-141.84;72.07;18875.00;4998110;28;20223;-63
2024/02/02 07:46:56;;;;;;;16.63;7.20;;;5.30;99.90;;;-141.84;71.83;18872.97;4984755;28;20259;-64
2024/02/02 07:49:24;;;;;;;13.17;7.60;;;5.30;99.90;;;-141.84;71.67;18846.56;4992842;28;20303;-63
2024/02/02 07:51:53;;;;;;;14.83;8.03;;;5.30;99.90;;;-141.84;71.48;18816.06;4994880;28;20551;-63
2024/02/02 07:54:21;;;;;;;16.90;7.07;;;5.30;99.90;;;-141.84;71.40;18812.00;4987555;28;20207;-63
2024/02/02 07:56:49;;;;;;;17.80;7.60;;;5.40;99.90;;;-141.84;71.20;18805.91;4992466;28;20211;-63
2024/02/02 07:59:18;;;;;;;15.17;6.30;;;5.40;99.90;;;-141.84;71.01;18809.97;5008404;28;20242;-62
2024/02/02 08:01:52;;;;;;;14.67;7.33;;;5.40;99.90;;;-141.84;71.07;18793.72;5000204;28;20261;-64
2024/02/02 08:04:24;;;;;;;15.60;7.73;;;5.50;99.90;;;-141.84;69.76;18704.31;5000149;28;20244;-63
2024/02/02 08:06:53;;;;;;;14.13;7.73;;;5.60;99.90;;;-141.84;69.09;18681.97;5005141;28;20250;-62
2024/02/02 08:09:25;;;;;;;13.47;7.53;;;5.70;99.90;;;-141.84;69.31;18686.03;4995998;28;20226;-63
2024/02/02 08:11:54;;;;;;;14.60;6.80;;;5.70;99.90;;;-141.84;69.41;18700.25;4997140;28;21074;-62
2024/02/02 08:14:25;;;;;;;12.47;7.30;;;5.80;99.90;;;-141.84;69.09;18677.91;4995359;28;20234;-63
2024/02/02 08:16:55;;;;;;;17.17;7.70;;;5.80;99.90;;;-141.84;70.09;18753.09;4989553;28;20474;-64
2024/02/02 08:19:26;;;;;;;15.17;7.07;;;5.90;99.90;;;-141.84;71.15;18846.56;5002238;28;20258;-64
2024/02/02 08:21:55;;;;;;;17.07;6.77;;;5.90;99.90;;;-141.84;72.25;19013.16;5000803;28;20249;-63
2024/02/02 08:24:26;;;;;;;12.47;6.13;;;5.90;99.90;;;-141.84;72.73;19143.22;5005573;28;20211;-64
2024/02/02 08:26:55;;;;;;;16.53;6.63;;;5.80;99.90;;;-141.84;74.01;19472.41;5009634;28;20233;-63
2024/02/02 08:29:25;;;;;;;13.80;6.80;;;5.70;99.90;;;-141.84;74.95;20409.38;5001011;28;20230;-62
2024/02/02 08:31:55;;;;;;;10.67;6.33;;;5.80;99.90;;;-141.84;74.54;19878.88;5008036;28;20253;-64
2024/02/02 08:34:25;;;;;;;14.07;6.20;;;5.80;99.90;;;-141.84;75.57;20956.19;4996903;28;20250;-63
2024/02/02 08:36:54;;;;;;;13.80;6.27;;;5.70;99.90;;;-141.84;77.23;24023.09;5001460;28;20230;-64
2024/02/02 08:39:25;;;;;;;13.73;6.67;;;5.70;99.90;;;-141.84;78.15;27440.59;5000652;28;20301;-63
2024/02/02 08:41:53;;;;;;;13.93;6.53;;;5.70;99.90;;;-141.84;77.53;26005.25;5006666;28;20286;-63
2024/02/02 08:44:27;;;;;;;14.77;6.67;;;5.80;99.90;;;-141.84;77.89;26927.47;5005094;28;20238;-63
2024/02/02 08:46:56;;;;;;;12.30;6.10;;;5.90;99.90;;;-141.84;76.47;22440.53;5001377;28;20230;-64
2024/02/02 08:49:48;;;;;;;14.37;6.80;;;5.90;99.90;;;-141.84;77.98;27794.94;5001223;28;20223;-64
2024/02/02 08:52:31;;;;;;;14.37;6.63;;;5.80;99.90;;;-141.84;80.51;41825.19;4998128;28;20233;-63
2024/02/02 08:55:06;;;;;;;15.33;6.50;;;5.80;99.90;;;-141.84;81.90;53352.78;4978032;28;20670;-63
2024/02/02 08:57:40;;;;;;;12.90;6.63;;;5.70;99.90;;;-141.84;83.63;62546.50;4978739;28;20288;-63
2024/02/02 09:00:34;;;;;;;12.67;6.63;;;5.80;99.90;;;-141.84;85.52;72288.75;4994310;28;20306;-63
2024/02/02 09:03:26;;;;;;;12.37;6.40;;;5.60;99.90;;;-141.84;84.67;70180.31;4995606;28;20219;-63
2024/02/02 09:05:57;;;;;;;14.63;6.83;;;5.70;99.90;;;-141.84;84.21;70180.31;4992229;28;20199;-63
2024/02/02 09:08:39;;;;;;;13.70;7.23;;;5.70;99.90;;;-141.84;84.23;69916.81;4993091;28;20233;-63
2024/02/02 09:11:25;;;;;;;15.37;7.23;;;5.80;99.90;;;-141.84;83.07;62546.50;4995193;28;20330;-62
2024/02/02 09:14:06;;;;;;;13.40;6.83;;;5.80;99.90;;;-141.84;80.88;48370.84;4995808;28;20259;-64
2024/02/02 09:16:48;;;;;;;14.23;5.93;;;5.90;99.90;;;-141.84;81.02;49419.16;4980197;28;20257;-64
2024/02/02 09:19:41;;;;;;;11.80;5.87;;;5.80;99.90;;;-141.84;81.23;50992.13;4998086;28;20277;-65
2024/02/02 09:22:13;;;;;;;15.70;6.27;;;5.90;99.90;;;-141.84;81.88;55452.34;4993877;28;20227;-64
2024/02/02 09:24:43;;;;;;;11.90;5.83;;;5.80;99.90;;;-141.84;81.11;49419.16;5001852;28;20313;-64
2024/02/02 09:27:16;;;;;;;9.87;5.40;;;5.90;99.90;;;-141.84;78.79;33715.50;5002243;28;20232;-64
2024/02/02 09:29:49;;;;;;;14.30;5.03;;;5.90;99.90;;;-141.84;77.78;27224.75;5003769;28;20286;-67
2024/02/02 09:32:18;;;;;;;12.87;5.90;;;6.00;99.90;;;-141.84;76.77;24509.38;4986484;28;20280;-64
2024/02/02 09:34:48;;;;;;;9.83;4.83;;;6.10;99.90;;;-141.84;75.52;21293.69;5004186;28;20227;-65
2024/02/02 09:37:23;;;;;;;10.20;4.93;;;6.10;99.90;;;-141.84;74.81;20275.22;4998712;28;20598;-63
2024/02/02 09:39:54;;;;;;;10.57;5.10;;;6.20;99.90;;;-141.84;73.28;19350.50;4990800;28;20297;-63
2024/02/02 09:42:51;;;;;;;11.27;4.73;;;6.30;99.90;;;-141.84;73.62;19598.41;4987327;28;20478;-54
2024/02/02 09:45:52;;;;;;;11.93;4.77;;;6.30;99.90;;;-141.84;70.96;18903.44;4992086;28;20250;-53
2024/02/02 09:48:42;;;;;;;9.67;4.33;;;6.50;99.90;;;-141.84;69.96;18771.38;4983850;28;20219;-53
2024/02/02 09:51:28;;;;;;;9.87;3.90;;;6.60;99.90;;;-141.84;69.08;18749.03;5001012;28;20305;-54
2024/02/02 09:54:13;;;;;;;9.07;3.70;;;6.60;99.90;;;-141.84;69.28;18708.41;4995429;28;20241;-55
2024/02/02 09:57:03;;;;;;;10.60;3.97;;;6.50;99.90;;;-141.84;69.00;18688.06;5002237;28;20610;-54
2024/02/02 09:59:50;;;;;;;9.70;4.13;;;6.60;99.90;;;-141.84;69.69;18769.34;5001125;28;20701;-56
2024/02/02 10:02:42;;;;;;;12.17;4.73;;;6.50;99.90;;;-141.84;71.44;18990.81;5002635;28;20299;-51
2024/02/02 10:05:24;;;;;;;13.43;4.53;;;6.50;99.90;;;-141.84;70.50;18854.69;4989779;28;20306;-55
2024/02/02 10:08:19;;;;;;;7.63;3.80;;;6.50;99.90;;;-141.84;70.06;18834.38;4968346;28;20202;-53
2024/02/02 10:11:10;;;;;;;8.63;4.13;;;6.50;99.90;;;-141.84;70.23;18828.28;4976618;28;20207;-52
2024/02/02 10:14:03;;;;;;;10.53;4.00;;;6.50;99.90;;;-141.84;70.50;18881.09;4997708;28;20195;-55
2024/02/02 10:16:46;;;;;;;9.97;3.83;;;6.60;99.90;;;-141.84;68.78;18767.31;5000180;28;20692;-52
2024/02/02 10:19:59;;;;;;;8.60;3.63;;;6.70;99.90;;;-141.84;68.00;18684.00;4999563;28;20242;-54
2024/02/02 10:23:00;;;;;;;6.77;3.57;;;6.80;99.90;;;-141.84;65.30;18633.22;4997199;28;20219;-56
2024/02/02 10:25:55;;;;;;;9.40;3.50;;;7.00;99.90;;;-141.84;65.51;18675.88;4998055;28;20295;-53
2024/02/02 10:28:45;;;;;;;6.17;3.53;;;7.20;99.90;;;-141.84;64.53;18655.56;4994729;28;20204;-56